createdAt,value
2022-07-31T00:00:28.471Z,24.74
2022-07-31T00:02:55.966Z,24.77
2022-07-31T00:05:25.428Z,24.48
2022-07-31T00:07:55.935Z,24.57
2022-07-31T00:10:23.891Z,24.59
2022-07-31T00:12:51.846Z,24.66
2022-07-31T00:15:20.032Z,24.31
2022-07-31T00:17:48.273Z,24.34
2022-07-31T00:20:18.880Z,24.35
2022-07-31T00:22:49.438Z,24.37
2022-07-31T00:25:18.068Z,24.26
2022-07-31T00:27:45.783Z,24.31
2022-07-31T00:30:13.918Z,24.31
2022-07-31T00:32:42.236Z,24.33
2022-07-31T00:35:14.398Z,24.39
2022-07-31T00:37:44.563Z,24.12
2022-07-31T00:40:14.347Z,24.29
2022-07-31T00:42:42.367Z,24.33
2022-07-31T00:45:13.642Z,24.30
2022-07-31T00:47:41.555Z,24.31
2022-07-31T00:50:09.652Z,24.52
2022-07-31T00:52:37.173Z,24.41
2022-07-31T00:55:04.992Z,24.31
2022-07-31T00:57:32.590Z,24.24
2022-07-31T01:00:01.236Z,24.18
2022-07-31T01:02:29.752Z,24.09
2022-07-31T01:04:57.269Z,24.17
2022-07-31T01:07:24.895Z,24.11
2022-07-31T01:09:53.963Z,24.04
2022-07-31T01:12:40.041Z,23.96
2022-07-31T01:15:10.440Z,23.87
2022-07-31T01:17:40.448Z,23.78
2022-07-31T01:20:09.059Z,23.77
2022-07-31T01:22:36.402Z,23.65
2022-07-31T01:25:25.914Z,23.61
2022-07-31T01:28:53.282Z,23.71
2022-07-31T01:31:31.036Z,23.70
2022-07-31T01:34:34.391Z,23.76
2022-07-31T01:37:18.411Z,23.70
2022-07-31T01:39:51.033Z,23.61
2022-07-31T01:42:20.526Z,23.74
2022-07-31T01:44:53.603Z,23.74
2022-07-31T01:47:24.134Z,23.83
2022-07-31T01:49:55.131Z,23.91
2022-07-31T01:52:26.388Z,23.85
2022-07-31T01:54:56.066Z,23.86
2022-07-31T01:57:26.169Z,23.78
2022-07-31T01:59:58.937Z,23.88
2022-07-31T02:02:45.192Z,23.84
2022-07-31T02:05:13.767Z,23.77
2022-07-31T02:07:44.176Z,23.75
2022-07-31T02:10:14.821Z,23.74
2022-07-31T02:12:43.986Z,23.69
2022-07-31T02:15:15.170Z,23.60
2022-07-31T02:17:47.201Z,23.62
2022-07-31T02:20:35.510Z,23.59
2022-07-31T02:23:03.014Z,23.59
2022-07-31T02:25:32.415Z,23.58
2022-07-31T02:28:07.919Z,23.52
2022-07-31T02:30:38.978Z,23.51
2022-07-31T02:33:11.854Z,23.40
2022-07-31T02:35:45.157Z,23.29
2022-07-31T02:38:22.918Z,23.12
2022-07-31T02:40:56.926Z,22.93
2022-07-31T02:43:27.022Z,23.06
2022-07-31T02:45:57.839Z,23.14
2022-07-31T02:48:26.619Z,23.15
2022-07-31T02:51:00.359Z,23.12
2022-07-31T02:53:30.474Z,23.07
2022-07-31T02:56:04.747Z,23.12
2022-07-31T02:58:42.206Z,23.21
2022-07-31T03:01:17.537Z,23.05
2022-07-31T03:03:46.031Z,23.11
2022-07-31T03:06:16.517Z,23.08
2022-07-31T03:08:44.457Z,23.09
2022-07-31T03:11:14.729Z,23.03
2022-07-31T03:13:43.930Z,22.93
2022-07-31T03:16:13.164Z,23.03
2022-07-31T03:18:41.825Z,23.13
2022-07-31T03:21:11.095Z,23.09
2022-07-31T03:23:39.539Z,23.12
2022-07-31T03:26:16.668Z,23.07
2022-07-31T03:28:44.216Z,23.08
2022-07-31T03:31:14.043Z,23.09
2022-07-31T03:33:42.892Z,23.13
2022-07-31T03:36:10.561Z,23.12
2022-07-31T03:38:38.920Z,23.14
2022-07-31T03:41:15.406Z,23.09
2022-07-31T03:43:47.906Z,23.08
2022-07-31T03:46:21.645Z,22.97
2022-07-31T03:48:53.005Z,23.08
2022-07-31T03:51:21.915Z,23.08
2022-07-31T03:53:51.881Z,23.00
2022-07-31T03:56:48.512Z,23.02
2022-07-31T03:59:18.696Z,23.14
2022-07-31T04:01:56.869Z,23.06
2022-07-31T04:04:55.821Z,23.07
2022-07-31T04:07:24.858Z,23.15
2022-07-31T04:09:52.840Z,23.12
2022-07-31T04:12:20.547Z,23.24
2022-07-31T04:14:48.893Z,23.27
2022-07-31T04:17:17.695Z,23.23
2022-07-31T04:19:45.095Z,23.14
2022-07-31T04:22:12.470Z,23.27
2022-07-31T04:24:41.045Z,23.27
2022-07-31T04:27:12.693Z,23.38
2022-07-31T04:29:46.396Z,23.41
2022-07-31T04:32:15.414Z,23.56
2022-07-31T04:34:53.168Z,23.75
2022-07-31T04:37:20.812Z,24.00
2022-07-31T04:39:48.419Z,24.21
2022-07-31T04:42:16.174Z,24.37
2022-07-31T04:44:43.838Z,24.58
2022-07-31T04:47:12.040Z,25.20
2022-07-31T04:49:43.516Z,26.26
2022-07-31T04:52:14.175Z,26.96
2022-07-31T04:54:44.587Z,27.65
2022-07-31T04:57:13.382Z,27.83
2022-07-31T04:59:59.830Z,27.01
2022-07-31T05:02:29.610Z,25.92
2022-07-31T05:04:57.708Z,25.58
2022-07-31T05:07:31.476Z,25.30
2022-07-31T05:10:01.518Z,25.28
2022-07-31T05:12:30.946Z,25.28
2022-07-31T05:14:58.760Z,25.35
2022-07-31T05:17:26.293Z,25.58
2022-07-31T05:20:22.617Z,26.55
2022-07-31T05:23:06.542Z,27.38
2022-07-31T05:25:59.536Z,26.90
2022-07-31T05:28:29.658Z,27.56
2022-07-31T05:30:59.023Z,27.97
2022-07-31T05:33:27.367Z,28.30
2022-07-31T05:35:56.046Z,28.48
2022-07-31T05:38:23.552Z,28.72
2022-07-31T05:41:11.271Z,28.65
2022-07-31T05:44:01.816Z,28.35
2022-07-31T05:46:38.300Z,28.91
2022-07-31T05:49:05.813Z,28.35
2022-07-31T05:51:33.424Z,28.20
2022-07-31T05:54:01.005Z,28.97
2022-07-31T05:56:47.693Z,29.20
2022-07-31T05:59:18.930Z,29.28
2022-07-31T06:01:46.819Z,29.40
2022-07-31T06:04:14.286Z,29.40
2022-07-31T06:06:44.859Z,28.97
2022-07-31T06:09:12.791Z,28.92
2022-07-31T06:11:43.924Z,29.44
2022-07-31T06:14:11.421Z,29.42
2022-07-31T06:16:57.134Z,29.64
2022-07-31T06:19:24.963Z,29.43
2022-07-31T06:21:54.024Z,29.54
2022-07-31T06:24:33.684Z,29.88
2022-07-31T06:27:05.066Z,29.55
2022-07-31T06:29:41.313Z,29.64
2022-07-31T06:32:10.055Z,29.92
2022-07-31T06:34:38.052Z,29.81
2022-07-31T06:37:06.166Z,29.41
2022-07-31T06:39:55.659Z,28.72
2022-07-31T06:42:36.379Z,29.21
2022-07-31T06:45:06.954Z,29.61
2022-07-31T06:47:37.214Z,29.64
2022-07-31T06:50:13.822Z,29.48
2022-07-31T06:52:48.357Z,29.25
2022-07-31T06:55:15.829Z,29.24
2022-07-31T06:57:43.273Z,29.44
2022-07-31T07:00:19.596Z,29.79
2022-07-31T07:02:49.609Z,29.74
2022-07-31T07:05:17.803Z,29.66
2022-07-31T07:07:48.278Z,29.99
2022-07-31T07:10:15.957Z,30.16
2022-07-31T07:13:17.248Z,30.43
2022-07-31T07:15:44.656Z,30.27
2022-07-31T07:18:12.310Z,30.41
2022-07-31T07:20:50.465Z,30.46
2022-07-31T07:23:18.837Z,29.95
2022-07-31T07:26:01.615Z,29.91
2022-07-31T07:28:30.979Z,29.60
2022-07-31T07:31:04.035Z,29.71
2022-07-31T07:33:40.730Z,29.52
2022-07-31T07:36:23.042Z,29.92
2022-07-31T07:38:55.604Z,29.84
2022-07-31T07:41:25.338Z,30.06
2022-07-31T07:43:53.402Z,30.57
2022-07-31T07:46:24.271Z,30.45
2022-07-31T07:48:56.930Z,30.87
2022-07-31T07:51:58.756Z,31.17
2022-07-31T07:54:41.032Z,31.30
2022-07-31T07:57:26.734Z,31.12
2022-07-31T08:00:09.680Z,30.86
2022-07-31T08:03:47.131Z,31.35
2022-07-31T08:05:44.767Z,31.49
2022-07-31T08:08:13.999Z,30.81
2022-07-31T08:11:01.376Z,30.74
2022-07-31T08:13:56.247Z,31.21
2022-07-31T08:16:43.649Z,30.98
2022-07-31T08:19:10.966Z,31.75
2022-07-31T08:21:39.578Z,32.08
2022-07-31T08:24:07.827Z,32.51
2022-07-31T08:26:53.744Z,32.00
2022-07-31T08:29:28.713Z,31.58
2022-07-31T08:32:13.332Z,31.73
2022-07-31T08:35:07.058Z,31.48
2022-07-31T08:37:52.119Z,31.27
2022-07-31T08:40:24.964Z,31.13
2022-07-31T08:42:53.815Z,31.26
2022-07-31T08:45:22.726Z,31.55
2022-07-31T08:48:14.787Z,32.25
2022-07-31T08:50:53.414Z,31.61
2022-07-31T08:53:52.642Z,32.00
2022-07-31T08:56:22.492Z,32.63
2022-07-31T08:58:49.924Z,33.07
2022-07-31T09:01:18.006Z,33.00
2022-07-31T09:03:46.192Z,32.62
2022-07-31T09:06:15.824Z,32.74
2022-07-31T09:08:43.303Z,32.76
2022-07-31T09:11:13.793Z,32.42
2022-07-31T09:14:02.505Z,32.77
2022-07-31T09:16:47.497Z,32.83
2022-07-31T09:19:26.339Z,32.38
2022-07-31T09:22:29.696Z,31.84
2022-07-31T09:25:19.343Z,31.47
2022-07-31T09:27:51.188Z,32.09
2022-07-31T09:30:18.675Z,32.86
2022-07-31T09:33:16.777Z,33.22
2022-07-31T09:36:05.358Z,33.97
2022-07-31T09:38:44.704Z,33.34
2022-07-31T09:42:01.096Z,32.48
2022-07-31T09:44:42.757Z,32.36
2022-07-31T09:47:27.655Z,32.31
2022-07-31T09:50:03.588Z,32.93
2022-07-31T09:52:33.910Z,33.73
2022-07-31T09:55:16.072Z,33.81
2022-07-31T09:57:57.913Z,34.49
2022-07-31T10:00:28.727Z,34.75
2022-07-31T10:02:57.704Z,35.13
2022-07-31T10:05:28.904Z,34.85
2022-07-31T10:08:00.638Z,33.50
2022-07-31T10:10:50.573Z,33.64
2022-07-31T10:13:35.846Z,33.17
2022-07-31T10:16:08.572Z,32.11
2022-07-31T10:18:46.429Z,32.94
2022-07-31T10:21:38.458Z,34.07
2022-07-31T10:24:12.852Z,34.31
2022-07-31T10:26:59.848Z,34.92
2022-07-31T10:29:32.372Z,34.73
2022-07-31T10:32:02.854Z,34.70
2022-07-31T10:34:34.841Z,34.56
2022-07-31T10:37:35.487Z,34.02
2022-07-31T10:40:29.618Z,32.68
2022-07-31T10:43:20.588Z,32.36
2022-07-31T10:46:07.229Z,31.98
2022-07-31T10:48:53.945Z,31.69
2022-07-31T10:51:54.871Z,31.24
2022-07-31T10:55:02.474Z,31.10
2022-07-31T10:57:57.212Z,31.26
2022-07-31T11:00:38.883Z,31.00
2022-07-31T11:03:24.631Z,31.07
2022-07-31T11:06:11.206Z,30.82
2022-07-31T11:08:59.216Z,31.36
2022-07-31T11:11:56.265Z,31.47
2022-07-31T11:14:35.950Z,31.58
2022-07-31T11:18:17.373Z,31.73
2022-07-31T11:20:32.302Z,31.89
2022-07-31T11:23:11.177Z,31.65
2022-07-31T11:25:38.935Z,31.88
2022-07-31T11:28:14.601Z,31.38
2022-07-31T11:30:59.442Z,32.06
2022-07-31T11:33:50.121Z,32.39
2022-07-31T11:36:20.367Z,31.55
2022-07-31T11:38:50.444Z,31.12
2022-07-31T11:41:22.930Z,30.99
2022-07-31T11:43:52.239Z,30.89
2022-07-31T11:46:30.273Z,30.73
2022-07-31T11:48:59.348Z,30.54
2022-07-31T11:51:28.768Z,30.89
2022-07-31T11:53:57.871Z,31.45
2022-07-31T11:56:27.760Z,31.37
2022-07-31T11:58:57.509Z,31.61
2022-07-31T12:01:29.647Z,31.41
2022-07-31T12:04:08.254Z,31.24
2022-07-31T12:06:37.876Z,31.09
2022-07-31T12:09:05.532Z,31.29
2022-07-31T12:11:33.144Z,31.38
2022-07-31T12:14:00.768Z,31.57
2022-07-31T12:16:38.673Z,31.68
2022-07-31T12:19:06.988Z,31.53
2022-07-31T12:21:36.876Z,31.29
2022-07-31T12:24:12.804Z,31.75
2022-07-31T12:26:44.557Z,31.42
2022-07-31T12:29:13.322Z,31.12
2022-07-31T12:31:52.472Z,31.05
2022-07-31T12:34:38.581Z,31.35
2022-07-31T12:37:17.585Z,31.36
2022-07-31T12:39:59.269Z,31.26
2022-07-31T12:42:41.833Z,31.31
2022-07-31T12:45:19.819Z,31.61
2022-07-31T12:47:51.408Z,31.68
2022-07-31T12:50:24.243Z,30.85
2022-07-31T12:52:52.034Z,31.01
2022-07-31T12:55:20.003Z,32.05
2022-07-31T12:57:51.070Z,32.23
2022-07-31T13:00:25.243Z,31.04
2022-07-31T13:02:55.568Z,30.97
2022-07-31T13:05:30.449Z,31.99
2022-07-31T13:07:58.177Z,31.93
2022-07-31T13:10:29.305Z,31.48
2022-07-31T13:12:59.829Z,31.64
2022-07-31T13:15:30.301Z,31.71
2022-07-31T13:17:59.191Z,31.76
2022-07-31T13:20:26.814Z,31.85
2022-07-31T13:22:54.250Z,31.80
2022-07-31T13:25:22.778Z,31.86
2022-07-31T13:27:51.527Z,31.23
2022-07-31T13:30:19.158Z,31.84
2022-07-31T13:32:46.507Z,31.70
2022-07-31T13:35:26.525Z,31.85
2022-07-31T13:37:58.553Z,32.06
2022-07-31T13:40:46.379Z,31.97
2022-07-31T13:43:14.272Z,32.27
2022-07-31T13:45:42.109Z,32.63
2022-07-31T13:48:13.130Z,31.71
2022-07-31T13:50:40.534Z,30.96
2022-07-31T13:53:11.528Z,30.96
2022-07-31T13:55:45.113Z,31.58
2022-07-31T13:58:16.651Z,31.98
2022-07-31T14:00:45.541Z,31.67
2022-07-31T14:03:20.486Z,31.36
2022-07-31T14:05:52.059Z,31.46
2022-07-31T14:08:33.040Z,31.34
2022-07-31T14:11:13.677Z,31.03
2022-07-31T14:13:42.764Z,31.21
2022-07-31T14:16:10.456Z,32.18
2022-07-31T14:18:37.915Z,31.75
2022-07-31T14:21:08.950Z,32.02
2022-07-31T14:23:40.624Z,31.47
2022-07-31T14:26:08.662Z,31.23
2022-07-31T14:28:36.193Z,31.58
2022-07-31T14:31:04.361Z,31.49
2022-07-31T14:33:31.945Z,31.82
2022-07-31T14:35:59.514Z,31.63
2022-07-31T14:38:27.734Z,32.24
2022-07-31T14:40:56.076Z,32.22
2022-07-31T14:43:23.549Z,31.61
2022-07-31T14:45:52.329Z,31.93
2022-07-31T14:48:20.027Z,31.45
2022-07-31T14:50:47.418Z,30.98
2022-07-31T14:53:17.817Z,31.24
2022-07-31T14:55:45.395Z,32.23
2022-07-31T14:58:12.749Z,33.02
2022-07-31T15:00:40.131Z,31.50
2022-07-31T15:03:07.613Z,31.29
2022-07-31T15:06:39.697Z,31.37
2022-07-31T15:08:22.761Z,30.96
2022-07-31T15:10:50.340Z,31.55
2022-07-31T15:13:18.267Z,32.31
2022-07-31T15:15:46.270Z,32.30
2022-07-31T15:18:13.692Z,31.63
2022-07-31T15:20:41.494Z,30.75
2022-07-31T15:23:09.032Z,31.03
2022-07-31T15:25:36.497Z,31.26
2022-07-31T15:28:06.678Z,31.72
2022-07-31T15:30:34.153Z,31.58
2022-07-31T15:33:01.454Z,30.11
2022-07-31T15:35:29.056Z,30.76
2022-07-31T15:38:01.399Z,31.74
2022-07-31T15:40:29.379Z,31.49
2022-07-31T15:42:56.910Z,30.91
2022-07-31T15:45:24.644Z,30.83
2022-07-31T15:47:52.075Z,31.01
2022-07-31T15:50:20.700Z,31.95
2022-07-31T15:52:49.225Z,32.07
2022-07-31T15:55:17.355Z,31.25
2022-07-31T15:57:44.950Z,32.61
2022-07-31T16:00:14.453Z,31.02
2022-07-31T16:02:43.142Z,30.76
2022-07-31T16:05:22.094Z,30.67
2022-07-31T16:08:30.113Z,30.31
2022-07-31T16:10:52.462Z,29.76
2022-07-31T16:13:22.076Z,29.72
2022-07-31T16:15:49.434Z,29.89
2022-07-31T16:18:18.336Z,30.43
2022-07-31T16:20:46.386Z,30.05
2022-07-31T16:23:13.873Z,30.27
2022-07-31T16:25:41.179Z,30.62
2022-07-31T16:28:08.556Z,30.58
2022-07-31T16:30:36.054Z,30.95
2022-07-31T16:33:03.497Z,30.01
2022-07-31T16:35:30.903Z,30.21
2022-07-31T16:37:58.297Z,29.92
2022-07-31T16:40:30.204Z,29.21
2022-07-31T16:43:01.628Z,29.34
2022-07-31T16:45:30.163Z,29.40
2022-07-31T16:47:58.273Z,29.89
2022-07-31T16:50:25.951Z,29.00
2022-07-31T16:52:55.002Z,30.43
2022-07-31T16:56:00.129Z,29.87
2022-07-31T16:58:15.426Z,31.10
2022-07-31T17:00:43.035Z,29.82
2022-07-31T17:03:58.811Z,29.25
2022-07-31T17:05:58.853Z,29.57
2022-07-31T17:08:26.268Z,28.88
2022-07-31T17:10:54.750Z,28.99
2022-07-31T17:13:23.375Z,28.97
2022-07-31T17:15:50.997Z,28.68
2022-07-31T17:18:18.547Z,28.55
2022-07-31T17:20:47.309Z,28.58
2022-07-31T17:23:15.803Z,28.54
2022-07-31T17:25:43.572Z,29.99
2022-07-31T17:28:15.225Z,29.88
2022-07-31T17:30:45.278Z,29.24
2022-07-31T17:33:12.953Z,28.76
2022-07-31T17:35:41.030Z,28.75
2022-07-31T17:38:08.863Z,29.14
2022-07-31T17:40:44.353Z,28.73
2022-07-31T17:43:13.309Z,28.41
2022-07-31T17:45:59.865Z,27.95
2022-07-31T17:48:29.571Z,28.31
2022-07-31T17:51:00.125Z,28.07
2022-07-31T17:53:31.141Z,27.70
2022-07-31T17:56:21.297Z,27.67
2022-07-31T17:58:48.708Z,27.50
2022-07-31T18:01:16.315Z,27.75
2022-07-31T18:03:43.957Z,27.97
2022-07-31T18:06:11.318Z,27.56
2022-07-31T18:08:38.795Z,27.85
2022-07-31T18:11:06.780Z,27.78
2022-07-31T18:13:48.411Z,27.44
2022-07-31T18:16:19.455Z,27.29
2022-07-31T18:18:50.284Z,26.99
2022-07-31T18:21:20.057Z,27.63
2022-07-31T18:23:47.766Z,27.70
2022-07-31T18:26:15.735Z,27.72
2022-07-31T18:28:43.149Z,27.27
2022-07-31T18:31:31.441Z,27.02
2022-07-31T18:33:57.924Z,27.27
2022-07-31T18:36:25.402Z,27.17
2022-07-31T18:38:52.924Z,26.70
2022-07-31T18:41:21.023Z,26.59
2022-07-31T18:43:48.506Z,26.52
2022-07-31T18:46:16.279Z,26.16
2022-07-31T18:48:43.845Z,26.01
2022-07-31T18:51:11.441Z,25.89
2022-07-31T18:53:39.054Z,25.74
2022-07-31T18:56:06.486Z,25.69
2022-07-31T18:58:35.001Z,25.65
2022-07-31T19:01:04.307Z,25.54
2022-07-31T19:03:31.747Z,25.63
2022-07-31T19:05:59.140Z,25.54
2022-07-31T19:08:26.573Z,25.50
2022-07-31T19:10:54.145Z,25.58
2022-07-31T19:13:22.856Z,25.94
2022-07-31T19:15:53.181Z,27.50
2022-07-31T19:18:25.754Z,27.66
2022-07-31T19:21:22.584Z,27.03
2022-07-31T19:23:47.904Z,27.35
2022-07-31T19:26:15.663Z,27.42
2022-07-31T19:28:43.698Z,27.51
2022-07-31T19:31:13.532Z,28.01
2022-07-31T19:33:41.775Z,27.01
2022-07-31T19:36:10.970Z,27.37
2022-07-31T19:38:39.873Z,27.96
2022-07-31T19:41:07.360Z,28.43
2022-07-31T19:43:34.949Z,29.08
2022-07-31T19:46:11.393Z,28.01
2022-07-31T19:48:44.750Z,27.94
2022-07-31T19:51:14.123Z,27.81
2022-07-31T19:53:42.577Z,28.28
2022-07-31T19:56:11.292Z,28.65
2022-07-31T19:58:42.043Z,28.48
2022-07-31T20:01:11.864Z,28.87
2022-07-31T20:03:39.308Z,28.54
2022-07-31T20:06:07.015Z,27.93
2022-07-31T20:08:34.693Z,28.01
2022-07-31T20:11:04.541Z,27.27
2022-07-31T20:13:38.812Z,27.33
2022-07-31T20:16:07.103Z,28.21
2022-07-31T20:18:34.638Z,28.93
2022-07-31T20:21:07.502Z,28.58
2022-07-31T20:23:38.561Z,29.11
2022-07-31T20:26:11.103Z,29.35
2022-07-31T20:28:42.216Z,29.52
2022-07-31T20:31:17.223Z,28.42
2022-07-31T20:33:57.002Z,28.22
2022-07-31T20:36:27.144Z,28.97
2022-07-31T20:38:56.866Z,29.26
2022-07-31T20:41:28.010Z,29.48
2022-07-31T20:43:55.514Z,29.43
2022-07-31T20:46:22.990Z,29.13
2022-07-31T20:48:50.551Z,28.66
2022-07-31T20:51:23.301Z,28.18
2022-07-31T20:53:52.686Z,28.50
2022-07-31T20:56:20.346Z,29.38
2022-07-31T20:58:51.782Z,29.11
2022-07-31T21:01:21.610Z,28.68
2022-07-31T21:03:50.146Z,28.06
2022-07-31T21:06:17.547Z,27.82
2022-07-31T21:08:45.106Z,27.77
2022-07-31T21:11:12.467Z,27.65
2022-07-31T21:13:42.165Z,27.42
2022-07-31T21:16:09.545Z,26.45
2022-07-31T21:18:41.201Z,25.36
2022-07-31T21:21:10.402Z,26.00
2022-07-31T21:23:37.828Z,26.13
2022-07-31T21:26:07.893Z,25.46
2022-07-31T21:28:35.878Z,25.16
2022-07-31T21:31:03.673Z,25.42
2022-07-31T21:33:31.530Z,25.74
2022-07-31T21:35:59.351Z,25.30
2022-07-31T21:38:27.057Z,24.78
2022-07-31T21:40:55.672Z,25.39
2022-07-31T21:43:23.559Z,25.05
2022-07-31T21:45:57.619Z,24.76
2022-07-31T21:48:30.189Z,24.97
2022-07-31T21:50:58.507Z,24.96
2022-07-31T21:53:26.200Z,25.74
2022-07-31T21:55:53.807Z,26.10
2022-07-31T21:58:21.344Z,25.81
2022-07-31T22:00:48.860Z,25.69
2022-07-31T22:03:16.404Z,25.82
2022-07-31T22:06:02.217Z,25.50
2022-07-31T22:08:30.335Z,24.82
2022-07-31T22:10:57.701Z,25.18
2022-07-31T22:13:25.189Z,24.46
2022-07-31T22:16:00.667Z,24.44
2022-07-31T22:18:33.563Z,24.62
2022-07-31T22:21:05.438Z,24.72
2022-07-31T22:23:33.167Z,25.26
2022-07-31T22:26:01.516Z,24.92
2022-07-31T22:28:29.003Z,24.76
2022-07-31T22:30:57.610Z,25.05
2022-07-31T22:33:25.568Z,25.32
2022-07-31T22:36:00.323Z,25.01
2022-07-31T22:38:30.390Z,24.81
2022-07-31T22:41:00.010Z,24.75
2022-07-31T22:44:12.756Z,24.59
2022-07-31T22:46:16.499Z,25.52
2022-07-31T22:48:45.632Z,25.37
2022-07-31T22:51:14.660Z,25.36
2022-07-31T22:53:44.630Z,25.69
2022-07-31T22:56:17.647Z,24.69
2022-07-31T22:58:45.244Z,24.25
2022-07-31T23:01:12.774Z,24.49
2022-07-31T23:03:40.131Z,24.64
2022-07-31T23:06:31.876Z,25.09
2022-07-31T23:08:56.079Z,25.46
2022-07-31T23:11:24.858Z,25.52
2022-07-31T23:13:52.876Z,25.09
2022-07-31T23:16:20.762Z,25.59
2022-07-31T23:18:49.989Z,26.23
2022-07-31T23:21:18.968Z,25.53
2022-07-31T23:23:48.424Z,25.80
2022-07-31T23:26:18.848Z,25.99
2022-07-31T23:28:46.951Z,26.47
2022-07-31T23:31:15.330Z,26.51
2022-07-31T23:33:43.135Z,26.60
2022-07-31T23:36:10.960Z,26.43
2022-07-31T23:38:38.935Z,26.49
2022-07-31T23:41:06.468Z,26.80
2022-07-31T23:43:34.162Z,25.30
2022-07-31T23:46:01.766Z,25.20
2022-07-31T23:48:30.146Z,25.52
2022-07-31T23:50:58.505Z,25.44
2022-07-31T23:53:26.430Z,25.68
2022-07-31T23:55:53.778Z,25.46
2022-07-31T23:58:21.415Z,26.65
